sensor_id;sensor_type;location;lat;lon;timestamp;P1;durP1;ratioP1;P2;durP2;ratioP2
20040;SDS011;10181;48.072;9.884;2023-11-19T00:01:56;2.03;;;1.73;;
20040;SDS011;10181;48.072;9.884;2023-11-19T00:04:22;2.77;;;2.67;;
20040;SDS011;10181;48.072;9.884;2023-11-19T00:06:48;2.10;;;2.00;;
20040;SDS011;10181;48.072;9.884;2023-11-19T00:09:13;2.33;;;2.17;;
20040;SDS011;10181;48.072;9.884;2023-11-19T00:11:41;2.50;;;2.30;;
20040;SDS011;10181;48.072;9.884;2023-11-19T00:14:07;2.63;;;2.43;;
20040;SDS011;10181;48.072;9.884;2023-11-19T00:16:33;2.90;;;2.60;;
20040;SDS011;10181;48.072;9.884;2023-11-19T00:18:59;2.63;;;2.47;;
20040;SDS011;10181;48.072;9.884;2023-11-19T00:21:25;3.03;;;2.83;;
20040;SDS011;10181;48.072;9.884;2023-11-19T00:23:53;2.97;;;2.77;;
20040;SDS011;10181;48.072;9.884;2023-11-19T00:26:19;3.00;;;2.80;;
20040;SDS011;10181;48.072;9.884;2023-11-19T00:28:45;2.83;;;2.63;;
20040;SDS011;10181;48.072;9.884;2023-11-19T00:31:12;3.23;;;2.93;;
20040;SDS011;10181;48.072;9.884;2023-11-19T00:33:38;2.70;;;2.50;;
20040;SDS011;10181;48.072;9.884;2023-11-19T00:36:04;2.90;;;2.70;;
20040;SDS011;10181;48.072;9.884;2023-11-19T00:38:30;2.93;;;2.73;;
20040;SDS011;10181;48.072;9.884;2023-11-19T00:40:56;3.63;;;3.33;;
20040;SDS011;10181;48.072;9.884;2023-11-19T00:43:21;3.63;;;3.33;;
20040;SDS011;10181;48.072;9.884;2023-11-19T00:45:47;3.40;;;3.17;;
20040;SDS011;10181;48.072;9.884;2023-11-19T00:48:15;3.00;;;2.80;;
20040;SDS011;10181;48.072;9.884;2023-11-19T00:50:41;3.13;;;2.93;;
20040;SDS011;10181;48.072;9.884;2023-11-19T00:53:09;3.90;;;3.60;;
20040;SDS011;10181;48.072;9.884;2023-11-19T00:55:35;3.10;;;2.90;;
20040;SDS011;10181;48.072;9.884;2023-11-19T00:58:00;3.53;;;3.23;;
20040;SDS011;10181;48.072;9.884;2023-11-19T01:00:26;3.43;;;3.13;;
20040;SDS011;10181;48.072;9.884;2023-11-19T01:02:52;3.20;;;3.00;;
20040;SDS011;10181;48.072;9.884;2023-11-19T01:05:18;3.23;;;2.93;;
20040;SDS011;10181;48.072;9.884;2023-11-19T01:07:47;3.37;;;3.03;;
20040;SDS011;10181;48.072;9.884;2023-11-19T01:10:13;3.37;;;3.17;;
20040;SDS011;10181;48.072;9.884;2023-11-19T01:12:41;2.70;;;2.50;;
20040;SDS011;10181;48.072;9.884;2023-11-19T01:15:09;3.13;;;2.93;;
20040;SDS011;10181;48.072;9.884;2023-11-19T01:17:36;2.77;;;2.57;;
20040;SDS011;10181;48.072;9.884;2023-11-19T01:20:03;3.47;;;3.27;;
20040;SDS011;10181;48.072;9.884;2023-11-19T01:22:31;3.63;;;3.20;;
20040;SDS011;10181;48.072;9.884;2023-11-19T01:24:57;3.10;;;2.90;;
20040;SDS011;10181;48.072;9.884;2023-11-19T01:27:23;2.50;;;2.40;;
20040;SDS011;10181;48.072;9.884;2023-11-19T01:29:49;3.00;;;2.83;;
20040;SDS011;10181;48.072;9.884;2023-11-19T01:32:15;2.50;;;2.30;;
20040;SDS011;10181;48.072;9.884;2023-11-19T01:34:41;3.70;;;3.23;;
20040;SDS011;10181;48.072;9.884;2023-11-19T01:37:07;2.97;;;2.77;;
20040;SDS011;10181;48.072;9.884;2023-11-19T01:39:35;3.20;;;2.90;;
20040;SDS011;10181;48.072;9.884;2023-11-19T01:42:01;3.30;;;3.10;;
20040;SDS011;10181;48.072;9.884;2023-11-19T01:44:26;3.33;;;3.03;;
20040;SDS011;10181;48.072;9.884;2023-11-19T01:46:52;3.40;;;3.20;;
20040;SDS011;10181;48.072;9.884;2023-11-19T01:49:18;3.00;;;2.80;;
20040;SDS011;10181;48.072;9.884;2023-11-19T01:51:45;3.33;;;3.03;;
20040;SDS011;10181;48.072;9.884;2023-11-19T01:54:12;2.67;;;2.47;;
20040;SDS011;10181;48.072;9.884;2023-11-19T01:56:40;3.50;;;3.30;;
20040;SDS011;10181;48.072;9.884;2023-11-19T01:59:07;3.53;;;3.23;;
20040;SDS011;10181;48.072;9.884;2023-11-19T02:01:34;3.40;;;3.20;;
20040;SDS011;10181;48.072;9.884;2023-11-19T02:04:04;3.27;;;3.07;;
20040;SDS011;10181;48.072;9.884;2023-11-19T02:06:31;3.47;;;3.17;;
20040;SDS011;10181;48.072;9.884;2023-11-19T02:08:59;3.70;;;3.40;;
20040;SDS011;10181;48.072;9.884;2023-11-19T02:11:25;3.63;;;3.33;;
20040;SDS011;10181;48.072;9.884;2023-11-19T02:13:54;3.20;;;3.00;;
20040;SDS011;10181;48.072;9.884;2023-11-19T02:16:22;3.60;;;3.30;;
20040;SDS011;10181;48.072;9.884;2023-11-19T02:18:48;3.80;;;3.50;;
20040;SDS011;10181;48.072;9.884;2023-11-19T02:21:14;4.07;;;3.77;;
20040;SDS011;10181;48.072;9.884;2023-11-19T02:23:43;4.10;;;3.60;;
20040;SDS011;10181;48.072;9.884;2023-11-19T02:26:12;4.20;;;3.80;;
20040;SDS011;10181;48.072;9.884;2023-11-19T02:28:58;3.50;;;3.20;;
20040;SDS011;10181;48.072;9.884;2023-11-19T02:31:24;3.10;;;2.90;;
20040;SDS011;10181;48.072;9.884;2023-11-19T02:33:49;3.03;;;2.83;;
20040;SDS011;10181;48.072;9.884;2023-11-19T02:36:15;3.83;;;3.53;;
20040;SDS011;10181;48.072;9.884;2023-11-19T02:38:41;3.47;;;3.27;;
20040;SDS011;10181;48.072;9.884;2023-11-19T02:41:07;4.00;;;3.40;;
20040;SDS011;10181;48.072;9.884;2023-11-19T02:43:34;5.30;;;3.87;;
20040;SDS011;10181;48.072;9.884;2023-11-19T02:46:02;3.57;;;3.33;;
20040;SDS011;10181;48.072;9.884;2023-11-19T02:48:31;4.27;;;3.97;;
20040;SDS011;10181;48.072;9.884;2023-11-19T02:50:57;3.80;;;3.50;;
20040;SDS011;10181;48.072;9.884;2023-11-19T02:53:23;4.00;;;3.60;;
20040;SDS011;10181;48.072;9.884;2023-11-19T02:55:52;4.17;;;3.77;;
20040;SDS011;10181;48.072;9.884;2023-11-19T02:58:18;4.17;;;3.77;;
20040;SDS011;10181;48.072;9.884;2023-11-19T03:00:49;4.30;;;3.90;;
20040;SDS011;10181;48.072;9.884;2023-11-19T03:03:22;3.87;;;3.57;;
20040;SDS011;10181;48.072;9.884;2023-11-19T03:05:55;4.03;;;3.63;;
20040;SDS011;10181;48.072;9.884;2023-11-19T03:08:21;3.93;;;3.53;;
20040;SDS011;10181;48.072;9.884;2023-11-19T03:10:47;4.17;;;3.77;;
20040;SDS011;10181;48.072;9.884;2023-11-19T03:13:14;3.67;;;3.37;;
20040;SDS011;10181;48.072;9.884;2023-11-19T03:15:40;4.67;;;4.03;;
20040;SDS011;10181;48.072;9.884;2023-11-19T03:18:15;4.83;;;3.90;;
20040;SDS011;10181;48.072;9.884;2023-11-19T03:20:40;3.83;;;3.53;;
20040;SDS011;10181;48.072;9.884;2023-11-19T03:23:06;3.73;;;3.43;;
20040;SDS011;10181;48.072;9.884;2023-11-19T03:25:32;4.67;;;3.93;;
20040;SDS011;10181;48.072;9.884;2023-11-19T03:27:59;5.07;;;3.70;;
20040;SDS011;10181;48.072;9.884;2023-11-19T03:30:28;3.77;;;3.47;;
20040;SDS011;10181;48.072;9.884;2023-11-19T03:32:55;4.43;;;4.03;;
20040;SDS011;10181;48.072;9.884;2023-11-19T03:35:22;3.70;;;3.40;;
20040;SDS011;10181;48.072;9.884;2023-11-19T03:37:48;3.83;;;3.57;;
20040;SDS011;10181;48.072;9.884;2023-11-19T03:40:14;4.03;;;3.67;;
20040;SDS011;10181;48.072;9.884;2023-11-19T03:42:40;3.77;;;3.47;;
20040;SDS011;10181;48.072;9.884;2023-11-19T03:45:06;3.70;;;3.40;;
20040;SDS011;10181;48.072;9.884;2023-11-19T03:47:36;3.60;;;3.30;;
20040;SDS011;10181;48.072;9.884;2023-11-19T03:50:02;4.63;;;3.53;;
20040;SDS011;10181;48.072;9.884;2023-11-19T03:52:28;3.97;;;3.67;;
20040;SDS011;10181;48.072;9.884;2023-11-19T03:54:56;4.17;;;3.80;;
20040;SDS011;10181;48.072;9.884;2023-11-19T03:57:23;3.97;;;3.57;;
20040;SDS011;10181;48.072;9.884;2023-11-19T03:59:49;3.87;;;3.57;;
20040;SDS011;10181;48.072;9.884;2023-11-19T04:02:15;3.27;;;3.07;;
20040;SDS011;10181;48.072;9.884;2023-11-19T04:04:41;3.63;;;3.07;;
20040;SDS011;10181;48.072;9.884;2023-11-19T04:07:07;3.50;;;3.20;;
20040;SDS011;10181;48.072;9.884;2023-11-19T04:09:33;4.80;;;3.07;;
20040;SDS011;10181;48.072;9.884;2023-11-19T04:11:59;3.20;;;3.00;;
20040;SDS011;10181;48.072;9.884;2023-11-19T04:14:25;2.93;;;2.73;;
20040;SDS011;10181;48.072;9.884;2023-11-19T04:16:51;3.30;;;3.10;;
20040;SDS011;10181;48.072;9.884;2023-11-19T04:19:20;3.23;;;3.03;;
20040;SDS011;10181;48.072;9.884;2023-11-19T04:21:47;3.23;;;3.03;;
20040;SDS011;10181;48.072;9.884;2023-11-19T04:24:13;2.73;;;2.53;;
20040;SDS011;10181;48.072;9.884;2023-11-19T04:26:42;3.20;;;2.97;;
20040;SDS011;10181;48.072;9.884;2023-11-19T04:29:13;2.93;;;2.77;;
20040;SDS011;10181;48.072;9.884;2023-11-19T04:31:40;3.57;;;3.30;;
20040;SDS011;10181;48.072;9.884;2023-11-19T04:34:06;3.03;;;2.83;;
20040;SDS011;10181;48.072;9.884;2023-11-19T04:36:33;3.40;;;3.10;;
20040;SDS011;10181;48.072;9.884;2023-11-19T04:38:59;2.33;;;2.20;;
20040;SDS011;10181;48.072;9.884;2023-11-19T04:41:25;3.40;;;3.10;;
20040;SDS011;10181;48.072;9.884;2023-11-19T04:43:53;2.97;;;2.70;;
20040;SDS011;10181;48.072;9.884;2023-11-19T04:46:19;3.63;;;3.33;;
20040;SDS011;10181;48.072;9.884;2023-11-19T04:48:44;2.97;;;2.77;;
20040;SDS011;10181;48.072;9.884;2023-11-19T04:51:10;3.27;;;3.07;;
20040;SDS011;10181;48.072;9.884;2023-11-19T04:53:36;3.13;;;2.50;;
20040;SDS011;10181;48.072;9.884;2023-11-19T04:56:07;3.40;;;3.17;;
20040;SDS011;10181;48.072;9.884;2023-11-19T04:58:36;3.17;;;2.97;;
20040;SDS011;10181;48.072;9.884;2023-11-19T05:01:02;3.20;;;2.43;;
20040;SDS011;10181;48.072;9.884;2023-11-19T05:03:29;3.20;;;3.00;;
20040;SDS011;10181;48.072;9.884;2023-11-19T05:05:55;3.53;;;3.23;;
20040;SDS011;10181;48.072;9.884;2023-11-19T05:08:21;3.60;;;3.30;;
20040;SDS011;10181;48.072;9.884;2023-11-19T05:10:46;3.33;;;3.10;;
20040;SDS011;10181;48.072;9.884;2023-11-19T05:13:12;3.20;;;2.90;;
20040;SDS011;10181;48.072;9.884;2023-11-19T05:15:37;3.30;;;2.97;;
20040;SDS011;10181;48.072;9.884;2023-11-19T05:18:03;3.07;;;2.87;;
20040;SDS011;10181;48.072;9.884;2023-11-19T05:20:30;3.40;;;3.10;;
20040;SDS011;10181;48.072;9.884;2023-11-19T05:22:55;3.27;;;3.07;;
20040;SDS011;10181;48.072;9.884;2023-11-19T05:25:21;3.53;;;3.23;;
20040;SDS011;10181;48.072;9.884;2023-11-19T05:27:47;3.80;;;3.50;;
20040;SDS011;10181;48.072;9.884;2023-11-19T05:30:13;4.37;;;3.97;;
20040;SDS011;10181;48.072;9.884;2023-11-19T05:32:38;3.37;;;3.10;;
20040;SDS011;10181;48.072;9.884;2023-11-19T05:35:04;3.70;;;3.40;;
20040;SDS011;10181;48.072;9.884;2023-11-19T05:37:30;4.77;;;3.47;;
20040;SDS011;10181;48.072;9.884;2023-11-19T05:39:56;3.60;;;3.30;;
20040;SDS011;10181;48.072;9.884;2023-11-19T05:42:22;3.47;;;3.20;;
20040;SDS011;10181;48.072;9.884;2023-11-19T05:44:48;3.57;;;3.27;;
20040;SDS011;10181;48.072;9.884;2023-11-19T05:47:14;3.17;;;2.97;;
20040;SDS011;10181;48.072;9.884;2023-11-19T05:49:40;3.73;;;3.43;;
20040;SDS011;10181;48.072;9.884;2023-11-19T05:52:06;3.40;;;3.17;;
20040;SDS011;10181;48.072;9.884;2023-11-19T05:54:32;3.60;;;3.30;;
20040;SDS011;10181;48.072;9.884;2023-11-19T05:57:03;3.40;;;3.10;;
20040;SDS011;10181;48.072;9.884;2023-11-19T05:59:35;23.23;;;13.83;;
20040;SDS011;10181;48.072;9.884;2023-11-19T06:02:01;92.10;;;38.83;;
20040;SDS011;10181;48.072;9.884;2023-11-19T06:04:27;131.07;;;48.27;;
20040;SDS011;10181;48.072;9.884;2023-11-19T06:06:54;110.67;;;56.23;;
20040;SDS011;10181;48.072;9.884;2023-11-19T06:09:22;45.53;;;26.80;;
20040;SDS011;10181;48.072;9.884;2023-11-19T06:11:51;24.40;;;17.43;;
20040;SDS011;10181;48.072;9.884;2023-11-19T06:14:17;26.27;;;15.63;;
20040;SDS011;10181;48.072;9.884;2023-11-19T06:16:43;25.30;;;18.93;;
20040;SDS011;10181;48.072;9.884;2023-11-19T06:19:09;43.77;;;28.70;;
20040;SDS011;10181;48.072;9.884;2023-11-19T06:21:36;55.37;;;36.27;;
20040;SDS011;10181;48.072;9.884;2023-11-19T06:24:02;48.67;;;32.73;;
20040;SDS011;10181;48.072;9.884;2023-11-19T06:26:28;45.60;;;33.27;;
20040;SDS011;10181;48.072;9.884;2023-11-19T06:28:54;44.13;;;26.77;;
20040;SDS011;10181;48.072;9.884;2023-11-19T06:31:19;48.30;;;28.37;;
20040;SDS011;10181;48.072;9.884;2023-11-19T06:33:45;20.03;;;14.60;;
20040;SDS011;10181;48.072;9.884;2023-11-19T06:36:14;20.07;;;14.37;;
20040;SDS011;10181;48.072;9.884;2023-11-19T06:38:41;7.30;;;6.53;;
20040;SDS011;10181;48.072;9.884;2023-11-19T06:41:07;7.90;;;7.30;;
20040;SDS011;10181;48.072;9.884;2023-11-19T06:43:34;6.47;;;5.97;;
20040;SDS011;10181;48.072;9.884;2023-11-19T06:46:00;7.43;;;6.73;;
20040;SDS011;10181;48.072;9.884;2023-11-19T06:48:26;4.43;;;4.07;;
20040;SDS011;10181;48.072;9.884;2023-11-19T06:50:52;5.03;;;4.63;;
20040;SDS011;10181;48.072;9.884;2023-11-19T06:53:18;4.93;;;4.50;;
20040;SDS011;10181;48.072;9.884;2023-11-19T06:55:44;4.50;;;4.10;;
20040;SDS011;10181;48.072;9.884;2023-11-19T06:58:09;5.43;;;4.97;;
20040;SDS011;10181;48.072;9.884;2023-11-19T07:00:35;4.57;;;4.17;;
20040;SDS011;10181;48.072;9.884;2023-11-19T07:03:01;6.50;;;5.90;;
20040;SDS011;10181;48.072;9.884;2023-11-19T07:05:26;5.77;;;5.20;;
20040;SDS011;10181;48.072;9.884;2023-11-19T07:07:53;5.23;;;4.80;;
20040;SDS011;10181;48.072;9.884;2023-11-19T07:10:19;5.17;;;4.67;;
20040;SDS011;10181;48.072;9.884;2023-11-19T07:12:45;4.50;;;4.10;;
20040;SDS011;10181;48.072;9.884;2023-11-19T07:15:10;4.50;;;4.07;;
20040;SDS011;10181;48.072;9.884;2023-11-19T07:17:38;4.63;;;4.23;;
20040;SDS011;10181;48.072;9.884;2023-11-19T07:20:05;4.60;;;4.20;;
20040;SDS011;10181;48.072;9.884;2023-11-19T07:22:31;5.03;;;4.53;;
20040;SDS011;10181;48.072;9.884;2023-11-19T07:24:56;3.70;;;3.50;;
20040;SDS011;10181;48.072;9.884;2023-11-19T07:27:23;4.47;;;4.07;;
20040;SDS011;10181;48.072;9.884;2023-11-19T07:29:49;4.70;;;4.30;;
20040;SDS011;10181;48.072;9.884;2023-11-19T07:32:15;4.07;;;3.43;;
20040;SDS011;10181;48.072;9.884;2023-11-19T07:34:40;3.97;;;3.67;;
20040;SDS011;10181;48.072;9.884;2023-11-19T07:37:06;3.80;;;3.53;;
20040;SDS011;10181;48.072;9.884;2023-11-19T07:39:32;3.93;;;3.53;;
20040;SDS011;10181;48.072;9.884;2023-11-19T07:41:57;3.57;;;3.27;;
20040;SDS011;10181;48.072;9.884;2023-11-19T07:44:23;4.03;;;3.73;;
20040;SDS011;10181;48.072;9.884;2023-11-19T07:46:49;4.83;;;4.33;;
20040;SDS011;10181;48.072;9.884;2023-11-19T07:49:15;4.03;;;3.63;;
20040;SDS011;10181;48.072;9.884;2023-11-19T07:51:41;4.20;;;3.90;;
20040;SDS011;10181;48.072;9.884;2023-11-19T07:54:06;3.57;;;3.33;;
20040;SDS011;10181;48.072;9.884;2023-11-19T07:56:33;4.10;;;3.80;;
20040;SDS011;10181;48.072;9.884;2023-11-19T07:59:02;3.67;;;3.37;;
20040;SDS011;10181;48.072;9.884;2023-11-19T08:01:27;3.60;;;3.07;;
20040;SDS011;10181;48.072;9.884;2023-11-19T08:03:53;3.83;;;3.53;;
20040;SDS011;10181;48.072;9.884;2023-11-19T08:06:19;3.33;;;3.03;;
20040;SDS011;10181;48.072;9.884;2023-11-19T08:08:44;3.10;;;2.90;;
20040;SDS011;10181;48.072;9.884;2023-11-19T08:11:10;3.40;;;3.20;;
20040;SDS011;10181;48.072;9.884;2023-11-19T08:13:43;3.67;;;3.37;;
20040;SDS011;10181;48.072;9.884;2023-11-19T08:16:11;3.20;;;3.00;;
20040;SDS011;10181;48.072;9.884;2023-11-19T08:18:36;2.90;;;2.70;;
20040;SDS011;10181;48.072;9.884;2023-11-19T08:21:02;3.00;;;2.80;;
20040;SDS011;10181;48.072;9.884;2023-11-19T08:23:29;3.20;;;3.00;;
20040;SDS011;10181;48.072;9.884;2023-11-19T08:25:55;2.90;;;2.70;;
20040;SDS011;10181;48.072;9.884;2023-11-19T08:28:21;2.87;;;2.67;;
20040;SDS011;10181;48.072;9.884;2023-11-19T08:30:46;2.77;;;2.67;;
20040;SDS011;10181;48.072;9.884;2023-11-19T08:33:12;2.90;;;2.70;;
20040;SDS011;10181;48.072;9.884;2023-11-19T08:35:38;8.70;;;5.57;;
20040;SDS011;10181;48.072;9.884;2023-11-19T08:38:03;6.43;;;5.50;;
20040;SDS011;10181;48.072;9.884;2023-11-19T08:40:29;2.30;;;2.20;;
20040;SDS011;10181;48.072;9.884;2023-11-19T08:42:55;2.83;;;2.63;;
20040;SDS011;10181;48.072;9.884;2023-11-19T08:45:21;2.50;;;2.40;;
20040;SDS011;10181;48.072;9.884;2023-11-19T08:47:47;2.40;;;2.30;;
20040;SDS011;10181;48.072;9.884;2023-11-19T08:53:18;2.17;;;2.07;;
20040;SDS011;10181;48.072;9.884;2023-11-19T08:55:44;2.13;;;1.97;;
20040;SDS011;10181;48.072;9.884;2023-11-19T08:58:14;2.33;;;2.20;;
20040;SDS011;10181;48.072;9.884;2023-11-19T09:00:40;1.80;;;1.70;;
20040;SDS011;10181;48.072;9.884;2023-11-19T09:03:09;2.13;;;1.93;;
20040;SDS011;10181;48.072;9.884;2023-11-19T09:05:35;2.20;;;2.10;;
20040;SDS011;10181;48.072;9.884;2023-11-19T09:08:21;1.80;;;1.70;;
20040;SDS011;10181;48.072;9.884;2023-11-19T09:10:50;1.90;;;1.80;;
20040;SDS011;10181;48.072;9.884;2023-11-19T09:13:16;1.67;;;1.57;;
20040;SDS011;10181;48.072;9.884;2023-11-19T09:15:42;1.60;;;1.57;;
20040;SDS011;10181;48.072;9.884;2023-11-19T09:18:08;1.37;;;1.30;;
20040;SDS011;10181;48.072;9.884;2023-11-19T09:20:33;1.67;;;1.57;;
20040;SDS011;10181;48.072;9.884;2023-11-19T09:23:03;2.10;;;2.00;;
20040;SDS011;10181;48.072;9.884;2023-11-19T09:25:30;1.57;;;1.47;;
20040;SDS011;10181;48.072;9.884;2023-11-19T09:27:56;1.43;;;1.43;;
20040;SDS011;10181;48.072;9.884;2023-11-19T09:30:22;1.40;;;1.40;;
20040;SDS011;10181;48.072;9.884;2023-11-19T09:32:49;1.80;;;1.80;;
20040;SDS011;10181;48.072;9.884;2023-11-19T09:35:15;1.70;;;1.60;;
20040;SDS011;10181;48.072;9.884;2023-11-19T09:37:41;1.40;;;1.40;;
20040;SDS011;10181;48.072;9.884;2023-11-19T09:40:09;1.50;;;1.40;;
20040;SDS011;10181;48.072;9.884;2023-11-19T09:42:43;1.00;;;1.00;;
20040;SDS011;10181;48.072;9.884;2023-11-19T09:45:13;1.10;;;1.10;;
20040;SDS011;10181;48.072;9.884;2023-11-19T09:47:44;0.90;;;0.90;;
20040;SDS011;10181;48.072;9.884;2023-11-19T09:50:17;1.17;;;1.07;;
20040;SDS011;10181;48.072;9.884;2023-11-19T09:52:44;1.20;;;1.10;;
20040;SDS011;10181;48.072;9.884;2023-11-19T09:55:10;1.60;;;1.13;;
20040;SDS011;10181;48.072;9.884;2023-11-19T09:57:37;0.80;;;0.80;;
20040;SDS011;10181;48.072;9.884;2023-11-19T10:00:15;0.80;;;0.80;;
20040;SDS011;10181;48.072;9.884;2023-11-19T10:02:42;0.77;;;0.77;;
20040;SDS011;10181;48.072;9.884;2023-11-19T10:05:12;1.20;;;1.10;;
20040;SDS011;10181;48.072;9.884;2023-11-19T10:07:39;1.17;;;1.17;;
20040;SDS011;10181;48.072;9.884;2023-11-19T10:10:05;1.00;;;1.00;;
20040;SDS011;10181;48.072;9.884;2023-11-19T10:12:32;1.20;;;0.93;;
20040;SDS011;10181;48.072;9.884;2023-11-19T10:14:58;0.80;;;0.80;;
20040;SDS011;10181;48.072;9.884;2023-11-19T10:17:28;1.00;;;1.00;;
20040;SDS011;10181;48.072;9.884;2023-11-19T10:19:57;0.93;;;0.93;;
20040;SDS011;10181;48.072;9.884;2023-11-19T10:22:22;0.80;;;0.80;;
20040;SDS011;10181;48.072;9.884;2023-11-19T10:24:49;0.83;;;0.83;;
20040;SDS011;10181;48.072;9.884;2023-11-19T10:27:15;0.67;;;0.67;;
20040;SDS011;10181;48.072;9.884;2023-11-19T10:29:44;0.87;;;0.87;;
20040;SDS011;10181;48.072;9.884;2023-11-19T10:32:13;0.73;;;0.73;;
20040;SDS011;10181;48.072;9.884;2023-11-19T10:34:42;0.77;;;0.77;;
20040;SDS011;10181;48.072;9.884;2023-11-19T10:37:08;0.60;;;0.60;;
20040;SDS011;10181;48.072;9.884;2023-11-19T10:39:51;0.50;;;0.50;;
20040;SDS011;10181;48.072;9.884;2023-11-19T10:42:21;0.77;;;0.77;;
20040;SDS011;10181;48.072;9.884;2023-11-19T10:44:46;0.70;;;0.70;;
20040;SDS011;10181;48.072;9.884;2023-11-19T10:47:13;0.70;;;0.70;;
20040;SDS011;10181;48.072;9.884;2023-11-19T10:49:39;1.37;;;0.90;;
20040;SDS011;10181;48.072;9.884;2023-11-19T10:52:05;0.73;;;0.73;;
20040;SDS011;10181;48.072;9.884;2023-11-19T10:54:34;0.50;;;0.50;;
20040;SDS011;10181;48.072;9.884;2023-11-19T10:57:00;0.77;;;0.77;;
20040;SDS011;10181;48.072;9.884;2023-11-19T10:59:30;0.70;;;0.70;;
20040;SDS011;10181;48.072;9.884;2023-11-19T11:02:03;0.50;;;0.50;;
20040;SDS011;10181;48.072;9.884;2023-11-19T11:04:32;0.53;;;0.53;;
20040;SDS011;10181;48.072;9.884;2023-11-19T11:07:02;0.70;;;0.70;;
20040;SDS011;10181;48.072;9.884;2023-11-19T11:09:29;0.80;;;0.80;;
20040;SDS011;10181;48.072;9.884;2023-11-19T11:11:56;0.50;;;0.50;;
20040;SDS011;10181;48.072;9.884;2023-11-19T11:14:24;0.90;;;0.90;;
20040;SDS011;10181;48.072;9.884;2023-11-19T11:16:51;0.37;;;0.37;;
20040;SDS011;10181;48.072;9.884;2023-11-19T11:19:18;0.50;;;0.50;;
20040;SDS011;10181;48.072;9.884;2023-11-19T11:21:47;0.37;;;0.37;;
20040;SDS011;10181;48.072;9.884;2023-11-19T11:29:47;0.50;;;0.50;;
20040;SDS011;10181;48.072;9.884;2023-11-19T11:32:43;0.40;;;0.40;;
20040;SDS011;10181;48.072;9.884;2023-11-19T11:38:00;0.50;;;0.50;;
20040;SDS011;10181;48.072;9.884;2023-11-19T11:40:29;0.43;;;0.43;;
20040;SDS011;10181;48.072;9.884;2023-11-19T11:42:55;0.40;;;0.40;;
20040;SDS011;10181;48.072;9.884;2023-11-19T11:45:34;0.50;;;0.40;;
20040;SDS011;10181;48.072;9.884;2023-11-19T11:48:06;0.40;;;0.40;;
20040;SDS011;10181;48.072;9.884;2023-11-19T11:50:47;0.40;;;0.40;;
20040;SDS011;10181;48.072;9.884;2023-11-19T11:53:22;0.40;;;0.40;;
20040;SDS011;10181;48.072;9.884;2023-11-19T11:58:48;0.50;;;0.50;;
20040;SDS011;10181;48.072;9.884;2023-11-19T12:01:07;0.80;;;0.37;;
20040;SDS011;10181;48.072;9.884;2023-11-19T12:03:44;0.30;;;0.30;;
20040;SDS011;10181;48.072;9.884;2023-11-19T12:06:12;0.33;;;0.33;;
20040;SDS011;10181;48.072;9.884;2023-11-19T12:08:38;0.47;;;0.47;;
20040;SDS011;10181;48.072;9.884;2023-11-19T12:11:04;0.37;;;0.37;;
20040;SDS011;10181;48.072;9.884;2023-11-19T12:13:46;0.30;;;0.30;;
20040;SDS011;10181;48.072;9.884;2023-11-19T12:16:17;0.50;;;0.40;;
20040;SDS011;10181;48.072;9.884;2023-11-19T12:18:43;1.03;;;0.43;;
20040;SDS011;10181;48.072;9.884;2023-11-19T12:21:09;0.50;;;0.43;;
20040;SDS011;10181;48.072;9.884;2023-11-19T12:23:35;0.30;;;0.30;;
20040;SDS011;10181;48.072;9.884;2023-11-19T12:26:20;0.50;;;0.50;;
20040;SDS011;10181;48.072;9.884;2023-11-19T12:29:00;0.63;;;0.37;;
20040;SDS011;10181;48.072;9.884;2023-11-19T12:31:28;0.40;;;0.40;;
20040;SDS011;10181;48.072;9.884;2023-11-19T12:33:54;0.30;;;0.30;;
20040;SDS011;10181;48.072;9.884;2023-11-19T12:36:20;0.93;;;0.40;;
20040;SDS011;10181;48.072;9.884;2023-11-19T12:38:46;0.30;;;0.30;;
20040;SDS011;10181;48.072;9.884;2023-11-19T12:41:11;0.30;;;0.30;;
20040;SDS011;10181;48.072;9.884;2023-11-19T12:43:38;0.57;;;0.57;;
20040;SDS011;10181;48.072;9.884;2023-11-19T12:46:20;0.40;;;0.40;;
20040;SDS011;10181;48.072;9.884;2023-11-19T12:48:50;0.33;;;0.33;;
20040;SDS011;10181;48.072;9.884;2023-11-19T12:51:16;0.30;;;0.30;;
20040;SDS011;10181;48.072;9.884;2023-11-19T12:53:49;0.27;;;0.27;;
20040;SDS011;10181;48.072;9.884;2023-11-19T12:56:18;0.40;;;0.40;;
20040;SDS011;10181;48.072;9.884;2023-11-19T12:58:43;0.17;;;0.17;;
20040;SDS011;10181;48.072;9.884;2023-11-19T13:01:09;0.30;;;0.30;;
20040;SDS011;10181;48.072;9.884;2023-11-19T13:03:38;0.60;;;0.40;;
20040;SDS011;10181;48.072;9.884;2023-11-19T13:06:10;0.40;;;0.40;;
20040;SDS011;10181;48.072;9.884;2023-11-19T13:08:38;0.47;;;0.47;;
20040;SDS011;10181;48.072;9.884;2023-11-19T13:11:09;0.30;;;0.30;;
20040;SDS011;10181;48.072;9.884;2023-11-19T13:13:57;0.43;;;0.43;;
20040;SDS011;10181;48.072;9.884;2023-11-19T13:16:22;1.20;;;0.57;;
20040;SDS011;10181;48.072;9.884;2023-11-19T13:18:48;1.87;;;0.40;;
20040;SDS011;10181;48.072;9.884;2023-11-19T13:21:14;0.40;;;0.40;;
20040;SDS011;10181;48.072;9.884;2023-11-19T13:23:39;0.50;;;0.50;;
20040;SDS011;10181;48.072;9.884;2023-11-19T13:26:05;0.40;;;0.40;;
20040;SDS011;10181;48.072;9.884;2023-11-19T13:28:31;0.60;;;0.47;;
20040;SDS011;10181;48.072;9.884;2023-11-19T13:30:57;0.30;;;0.30;;
20040;SDS011;10181;48.072;9.884;2023-11-19T13:33:23;0.50;;;0.50;;
20040;SDS011;10181;48.072;9.884;2023-11-19T13:35:48;0.50;;;0.50;;
20040;SDS011;10181;48.072;9.884;2023-11-19T13:38:14;0.30;;;0.30;;
20040;SDS011;10181;48.072;9.884;2023-11-19T13:40:39;0.30;;;0.30;;
20040;SDS011;10181;48.072;9.884;2023-11-19T13:43:05;0.63;;;0.63;;
20040;SDS011;10181;48.072;9.884;2023-11-19T13:45:31;0.47;;;0.47;;
20040;SDS011;10181;48.072;9.884;2023-11-19T13:47:56;0.40;;;0.40;;
20040;SDS011;10181;48.072;9.884;2023-11-19T13:50:22;0.50;;;0.50;;
20040;SDS011;10181;48.072;9.884;2023-11-19T13:52:48;0.43;;;0.43;;
20040;SDS011;10181;48.072;9.884;2023-11-19T13:55:14;0.50;;;0.50;;
20040;SDS011;10181;48.072;9.884;2023-11-19T13:57:47;0.40;;;0.40;;
20040;SDS011;10181;48.072;9.884;2023-11-19T14:00:13;0.50;;;0.50;;
20040;SDS011;10181;48.072;9.884;2023-11-19T14:02:44;0.33;;;0.33;;
20040;SDS011;10181;48.072;9.884;2023-11-19T14:05:11;0.40;;;0.40;;
20040;SDS011;10181;48.072;9.884;2023-11-19T14:07:38;0.40;;;0.40;;
20040;SDS011;10181;48.072;9.884;2023-11-19T14:10:04;0.37;;;0.37;;
20040;SDS011;10181;48.072;9.884;2023-11-19T14:12:31;0.40;;;0.40;;
20040;SDS011;10181;48.072;9.884;2023-11-19T14:14:57;0.60;;;0.60;;
20040;SDS011;10181;48.072;9.884;2023-11-19T14:17:23;0.30;;;0.30;;
20040;SDS011;10181;48.072;9.884;2023-11-19T14:19:50;0.40;;;0.40;;
20040;SDS011;10181;48.072;9.884;2023-11-19T14:22:16;0.50;;;0.50;;
20040;SDS011;10181;48.072;9.884;2023-11-19T14:24:42;1.03;;;0.40;;
20040;SDS011;10181;48.072;9.884;2023-11-19T14:27:08;0.50;;;0.50;;
20040;SDS011;10181;48.072;9.884;2023-11-19T14:29:34;0.57;;;0.57;;
20040;SDS011;10181;48.072;9.884;2023-11-19T14:32:00;1.60;;;0.50;;
20040;SDS011;10181;48.072;9.884;2023-11-19T14:34:27;0.57;;;0.50;;
20040;SDS011;10181;48.072;9.884;2023-11-19T14:36:54;0.37;;;0.37;;
20040;SDS011;10181;48.072;9.884;2023-11-19T14:39:19;0.67;;;0.67;;
20040;SDS011;10181;48.072;9.884;2023-11-19T14:41:45;0.30;;;0.30;;
20040;SDS011;10181;48.072;9.884;2023-11-19T14:44:11;1.00;;;0.47;;
20040;SDS011;10181;48.072;9.884;2023-11-19T14:46:36;0.50;;;0.50;;
20040;SDS011;10181;48.072;9.884;2023-11-19T14:49:02;0.40;;;0.40;;
20040;SDS011;10181;48.072;9.884;2023-11-19T14:51:35;0.40;;;0.40;;
20040;SDS011;10181;48.072;9.884;2023-11-19T14:54:02;0.47;;;0.47;;
20040;SDS011;10181;48.072;9.884;2023-11-19T14:56:28;0.40;;;0.40;;
20040;SDS011;10181;48.072;9.884;2023-11-19T14:58:53;0.53;;;0.53;;
20040;SDS011;10181;48.072;9.884;2023-11-19T15:01:19;0.40;;;0.40;;